Portada
METAR-TAF:

METAR-TAF

Aeroports :

Wattisham, Anglaterra

latitud: 52-07N, longitud: 000-58E, altitud: 87 m

Observació

L'informe es va fer fa 53 minuts, a les 12:50 UTC
Vent 6 kt del Nord-Oest
Temperatura 3°C
Humitat 87%
Pressió 1030 hPa
Visibilitat 10 km o més
Cel ennuvolat a una alçada de 4000 ft

METAR: EGUW 151250Z 32006KT 9999 BKN040 03/01 Q1030 NOSIG RMK BLU BLU

Hora: 13:43 (13:43 UTC)

Pronòstic

L'informe es va fer fa 3 hores i 12 minuts, a les 10:31 UTC
Pronòstic vàlid del 15 a les 12 UTC al 15 a les 19 UTC
Vent 5 kt del Nord/Nord-Oest
Visibilitat 10 km o més
Cel ennuvolat a una alçada de 3500 ft
Evolucionant progressivament
l' 15 a les 16 UTC al 15 a les 19 UTC
Visibilitat: 4000 m
boirina

TAF: EGUW 151031Z 1512/1519 34005KT 9999 BKN035 BECMG 1516/1519 4000 BR

Observacions i pronòstics meteorològics de més de 4000 aeroports (METAR i TAF).

Les estacions disponibles són els punts grocs i vermells al mapa.

Posi el ratolí al punt desitjat per veure el nom de l'estació.

Feu clic per veure les observacions i els pronòstics meteorològics.

Per canviar el mapa: feu clic els botons verds amb una creu de color negre per apropar; al botó verd amb un guió per allunyar la imatge; o en les fletxes verdes per a mapes adjacents.


METAR-TAF: